createdAt,value
2022-09-04T00:01:45.702Z,2.20
2022-09-04T00:04:24.299Z,2.13
2022-09-04T00:07:02.514Z,2.40
2022-09-04T00:09:41.066Z,2.63
2022-09-04T00:12:10.817Z,2.50
2022-09-04T00:14:44.347Z,2.40
2022-09-04T00:17:20.283Z,2.23
2022-09-04T00:19:53.938Z,2.60
2022-09-04T00:22:29.462Z,2.60
2022-09-04T00:25:04.389Z,3.00
2022-09-04T00:27:44.152Z,2.97
2022-09-04T00:30:19.743Z,2.93
2022-09-04T00:32:55.838Z,3.10
2022-09-04T00:35:30.718Z,3.20
2022-09-04T00:38:05.092Z,3.17
2022-09-04T00:40:35.728Z,2.97
2022-09-04T00:43:36.144Z,3.00
2022-09-04T00:46:43.355Z,2.57
2022-09-04T00:49:36.448Z,2.70
2022-09-04T00:52:15.216Z,2.90
2022-09-04T00:54:53.354Z,2.80
2022-09-04T00:57:49.962Z,2.53
2022-09-04T01:00:20.687Z,2.57
2022-09-04T01:03:14.611Z,2.53
2022-09-04T01:05:59.842Z,2.77
2022-09-04T01:08:42.657Z,2.40
2022-09-04T01:11:15.836Z,2.60
2022-09-04T01:13:52.070Z,2.70
2022-09-04T01:16:27.513Z,2.60
2022-09-04T01:19:00.222Z,2.30
2022-09-04T01:22:01.316Z,2.10
2022-09-04T01:24:52.815Z,2.33
2022-09-04T01:27:28.210Z,2.40
2022-09-04T01:30:05.373Z,2.30
2022-09-04T01:32:43.162Z,2.40
2022-09-04T01:35:23.108Z,2.13
2022-09-04T01:38:01.069Z,2.70
2022-09-04T01:40:39.416Z,2.30
2022-09-04T01:43:12.011Z,2.20
2022-09-04T01:46:10.338Z,2.10
2022-09-04T01:48:46.901Z,2.10
2022-09-04T01:51:21.410Z,2.20
2022-09-04T01:54:03.816Z,2.30
2022-09-04T01:56:39.754Z,2.43
2022-09-04T01:59:20.939Z,2.17
2022-09-04T02:01:55.392Z,2.40
2022-09-04T02:04:29.755Z,2.30
2022-09-04T02:07:04.766Z,2.40
2022-09-04T02:09:38.743Z,2.20
2022-09-04T02:12:22.226Z,2.40
2022-09-04T02:15:04.237Z,2.20
2022-09-04T02:17:43.393Z,2.37
2022-09-04T02:20:24.448Z,2.47
2022-09-04T02:23:05.517Z,2.30
2022-09-04T02:25:39.296Z,2.00
2022-09-04T02:28:23.193Z,1.70
2022-09-04T02:31:01.179Z,1.43
2022-09-04T02:33:36.691Z,1.63
2022-09-04T02:36:14.229Z,2.00
2022-09-04T02:38:52.539Z,2.20
2022-09-04T02:41:30.229Z,2.50
2022-09-04T02:44:16.358Z,2.37
2022-09-04T02:46:56.812Z,2.20
2022-09-04T02:49:35.832Z,2.07
2022-09-04T02:52:16.494Z,2.37
2022-09-04T02:54:57.563Z,2.23
2022-09-04T02:57:33.802Z,2.60
2022-09-04T03:00:08.122Z,2.67
2022-09-04T03:02:43.158Z,3.23
2022-09-04T03:05:20.377Z,3.30
2022-09-04T03:07:57.327Z,3.17
2022-09-04T03:10:31.791Z,3.17
2022-09-04T03:13:05.922Z,2.93
2022-09-04T03:15:39.864Z,2.50
2022-09-04T03:18:17.519Z,2.80
2022-09-04T03:20:52.372Z,2.60
2022-09-04T03:23:24.712Z,2.50
2022-09-04T03:26:19.274Z,2.70
2022-09-04T03:29:00.974Z,2.60
2022-09-04T03:31:34.187Z,2.30
2022-09-04T03:34:27.383Z,2.30
2022-09-04T03:37:33.972Z,2.40
2022-09-04T03:40:19.015Z,2.67
2022-09-04T03:43:02.933Z,2.23
2022-09-04T03:45:40.831Z,2.40
2022-09-04T03:48:21.170Z,2.40
2022-09-04T03:50:58.143Z,2.50
2022-09-04T03:53:33.544Z,2.30
2022-09-04T03:56:26.371Z,2.30
2022-09-04T03:59:03.002Z,2.40
2022-09-04T04:01:48.297Z,2.40
2022-09-04T04:04:35.188Z,2.40
2022-09-04T04:07:13.714Z,2.63
2022-09-04T04:09:55.615Z,2.33
2022-09-04T04:12:42.681Z,2.30
2022-09-04T04:15:33.635Z,2.60
2022-09-04T04:18:18.608Z,2.70
2022-09-04T04:20:54.195Z,2.80
2022-09-04T04:23:56.803Z,2.53
2022-09-04T04:26:40.712Z,2.53
2022-09-04T04:29:37.914Z,2.50
2022-09-04T04:32:25.475Z,2.37
2022-09-04T04:35:13.102Z,2.60
2022-09-04T04:37:51.931Z,2.40
2022-09-04T04:40:33.367Z,2.80
2022-09-04T04:43:13.979Z,2.70
2022-09-04T04:45:50.545Z,2.50
2022-09-04T04:48:41.797Z,2.70
2022-09-04T04:51:26.350Z,2.40
2022-09-04T04:53:59.250Z,2.57
2022-09-04T04:56:36.006Z,2.73
2022-09-04T04:59:20.504Z,2.63
2022-09-04T05:01:57.516Z,2.60
2022-09-04T05:04:37.410Z,2.57
2022-09-04T05:07:14.210Z,2.63
2022-09-04T05:09:48.840Z,2.80
2022-09-04T05:12:28.576Z,2.83
2022-09-04T05:15:01.202Z,2.70
2022-09-04T05:17:40.355Z,2.50
2022-09-04T05:20:35.905Z,2.93
2022-09-04T05:23:16.056Z,2.80
2022-09-04T05:25:51.815Z,2.80
2022-09-04T05:28:32.691Z,2.60
2022-09-04T05:31:13.238Z,2.87
2022-09-04T05:33:51.547Z,3.37
2022-09-04T05:36:25.583Z,2.70
2022-09-04T05:39:04.523Z,2.77
2022-09-04T05:41:43.090Z,2.80
2022-09-04T05:44:30.900Z,2.53
2022-09-04T05:47:09.990Z,2.60
2022-09-04T05:49:55.575Z,2.73
2022-09-04T05:52:45.635Z,2.47
2022-09-04T05:55:37.575Z,2.60
2022-09-04T05:58:26.034Z,2.40
2022-09-04T06:01:08.056Z,2.60
2022-09-04T06:03:59.184Z,2.50
2022-09-04T06:06:37.616Z,2.80
2022-09-04T06:09:28.451Z,2.57
2022-09-04T06:12:30.094Z,2.93
2022-09-04T06:15:22.796Z,3.00
2022-09-04T06:18:14.640Z,3.10
2022-09-04T06:21:07.226Z,3.00
2022-09-04T06:23:59.047Z,3.20
2022-09-04T06:26:44.847Z,2.70
2022-09-04T06:29:34.408Z,3.03
2022-09-04T06:32:35.163Z,2.40
2022-09-04T06:35:23.947Z,2.97
2022-09-04T06:38:07.811Z,2.80
2022-09-04T06:40:49.696Z,2.83
2022-09-04T06:43:29.745Z,3.13
2022-09-04T06:46:08.919Z,3.10
2022-09-04T06:48:49.371Z,2.87
2022-09-04T06:51:32.651Z,2.67
2022-09-04T06:54:12.472Z,2.80
2022-09-04T06:56:55.796Z,3.00
2022-09-04T06:59:48.980Z,2.80
2022-09-04T07:02:28.786Z,3.00
2022-09-04T07:05:12.388Z,2.67
2022-09-04T07:07:52.504Z,3.33
2022-09-04T07:10:25.716Z,3.37
2022-09-04T07:13:40.388Z,3.40
2022-09-04T07:16:21.757Z,3.50
2022-09-04T07:19:07.788Z,3.43
2022-09-04T07:21:45.618Z,3.47
2022-09-04T07:24:41.143Z,3.17
2022-09-04T07:27:15.970Z,2.90
2022-09-04T07:29:51.062Z,3.30
2022-09-04T07:32:24.499Z,3.10
2022-09-04T07:34:58.621Z,3.37
2022-09-04T07:37:36.636Z,3.23
2022-09-04T07:40:13.797Z,3.13
2022-09-04T07:42:51.003Z,3.57
2022-09-04T07:45:30.231Z,3.60
2022-09-04T07:48:12.137Z,3.13
2022-09-04T07:50:49.045Z,3.07
2022-09-04T07:53:28.771Z,3.03
2022-09-04T07:56:02.039Z,3.37
2022-09-04T07:59:04.921Z,3.30
2022-09-04T08:02:06.795Z,3.33
2022-09-04T08:04:54.391Z,3.70
2022-09-04T08:07:47.884Z,3.33
2022-09-04T08:10:27.076Z,3.40
2022-09-04T08:13:22.843Z,3.30
2022-09-04T08:15:57.756Z,3.20
2022-09-04T08:18:44.988Z,3.60
2022-09-04T08:21:21.424Z,3.57
2022-09-04T08:24:20.267Z,3.60
2022-09-04T08:27:03.998Z,3.47
2022-09-04T08:29:51.683Z,3.40
2022-09-04T08:32:38.199Z,3.40
2022-09-04T08:35:22.455Z,3.67
2022-09-04T08:38:03.333Z,3.50
2022-09-04T08:41:06.832Z,3.87
2022-09-04T08:44:12.564Z,3.80
2022-09-04T08:47:11.160Z,3.83
2022-09-04T08:50:09.415Z,3.80
2022-09-04T08:53:09.124Z,3.60
2022-09-04T08:55:48.319Z,3.53
2022-09-04T08:58:56.283Z,3.63
2022-09-04T09:01:57.119Z,3.10
2022-09-04T09:04:58.212Z,2.90
2022-09-04T09:08:06.008Z,2.73
2022-09-04T09:10:40.190Z,3.50
2022-09-04T09:13:40.684Z,3.30
2022-09-04T09:16:21.648Z,2.80
2022-09-04T09:19:19.500Z,3.00
2022-09-04T09:21:55.491Z,3.30
2022-09-04T09:24:48.357Z,3.10
2022-09-04T09:27:42.748Z,2.50
2022-09-04T09:30:17.513Z,3.00
2022-09-04T09:33:18.216Z,2.65
2022-09-04T09:36:36.661Z,2.30
2022-09-04T09:39:37.393Z,2.78
2022-09-04T09:42:48.618Z,2.50
2022-09-04T09:45:43.833Z,2.10
2022-09-04T09:48:44.059Z,2.10
2022-09-04T09:51:47.411Z,2.10
2022-09-04T09:54:52.156Z,2.00
2022-09-04T09:57:47.716Z,2.00
2022-09-04T10:00:17.248Z,1.90
2022-09-04T10:03:24.378Z,1.80
2022-09-04T10:06:31.655Z,1.75
2022-09-04T10:09:38.171Z,1.80
2022-09-04T10:12:35.558Z,1.48
2022-09-04T10:15:37.602Z,1.63
2022-09-04T10:18:32.548Z,1.50
2022-09-04T10:21:23.551Z,1.50
2022-09-04T10:24:10.576Z,1.77
2022-09-04T10:27:11.060Z,1.70
2022-09-04T10:29:56.867Z,1.50
2022-09-04T10:32:49.023Z,1.60
2022-09-04T10:35:25.249Z,2.00
2022-09-04T10:38:16.191Z,1.60
2022-09-04T10:41:10.829Z,1.70
2022-09-04T10:43:53.753Z,1.55
2022-09-04T10:46:27.410Z,1.30
2022-09-04T10:49:18.551Z,1.40
2022-09-04T10:52:21.721Z,1.60
2022-09-04T10:55:14.806Z,1.50
2022-09-04T10:57:54.855Z,1.60
2022-09-04T11:00:23.938Z,1.58
2022-09-04T11:03:29.756Z,1.42
2022-09-04T11:06:26.418Z,1.50
2022-09-04T11:09:14.416Z,1.30
2022-09-04T11:12:16.531Z,1.40
2022-09-04T11:15:14.896Z,1.63
2022-09-04T11:18:11.753Z,1.30
2022-09-04T11:21:21.041Z,1.35
2022-09-04T11:24:28.235Z,1.20
2022-09-04T11:27:22.891Z,1.48
2022-09-04T11:30:03.687Z,1.30
2022-09-04T11:33:07.853Z,1.15
2022-09-04T11:36:18.880Z,1.27
2022-09-04T11:39:30.041Z,1.10
2022-09-04T11:42:40.048Z,1.23
2022-09-04T11:45:49.978Z,1.35
2022-09-04T11:48:48.483Z,1.30
2022-09-04T11:51:41.856Z,1.27
2022-09-04T11:54:23.450Z,1.30
2022-09-04T11:57:05.687Z,1.20
2022-09-04T11:59:48.907Z,1.10
2022-09-04T12:02:36.166Z,1.40
2022-09-04T12:05:24.809Z,1.40
2022-09-04T12:08:14.244Z,1.50
2022-09-04T12:11:01.322Z,1.17
2022-09-04T12:13:43.897Z,1.20
2022-09-04T12:16:54.216Z,1.30
2022-09-04T12:19:50.339Z,1.48
2022-09-04T12:22:43.504Z,1.50
2022-09-04T12:25:40.039Z,1.40
2022-09-04T12:28:40.727Z,1.10
2022-09-04T12:31:51.473Z,1.13
2022-09-04T12:34:49.399Z,1.40
2022-09-04T12:37:37.611Z,1.15
2022-09-04T12:40:34.335Z,1.60
2022-09-04T12:43:16.342Z,1.38
2022-09-04T12:45:51.169Z,1.30
2022-09-04T12:48:32.845Z,1.25
2022-09-04T12:51:09.792Z,1.30
2022-09-04T12:53:55.073Z,1.10
2022-09-04T12:56:31.397Z,1.42
2022-09-04T12:59:19.575Z,1.10
2022-09-04T13:02:00.463Z,1.30
2022-09-04T13:04:36.712Z,1.15
2022-09-04T13:07:22.792Z,1.10
2022-09-04T13:09:59.248Z,1.20
2022-09-04T13:12:39.149Z,1.10
2022-09-04T13:15:19.453Z,1.20
2022-09-04T13:17:59.257Z,0.95
2022-09-04T13:20:36.031Z,1.10
2022-09-04T13:23:37.054Z,1.30
2022-09-04T13:26:20.888Z,1.10
2022-09-04T13:28:56.897Z,1.15
2022-09-04T13:31:38.219Z,1.17
2022-09-04T13:34:18.490Z,1.20
2022-09-04T13:37:04.245Z,1.30
2022-09-04T13:39:54.449Z,1.40
2022-09-04T13:42:48.613Z,1.33
2022-09-04T13:45:23.387Z,1.20
2022-09-04T13:47:58.132Z,1.13
2022-09-04T13:50:32.188Z,1.27
2022-09-04T13:53:11.027Z,1.40
2022-09-04T13:55:41.038Z,1.10
2022-09-04T13:58:15.195Z,1.15
2022-09-04T14:00:47.125Z,1.35
2022-09-04T14:03:31.830Z,1.50
2022-09-04T14:06:00.824Z,1.00
2022-09-04T14:08:31.218Z,1.20
2022-09-04T14:11:25.635Z,1.30
2022-09-04T14:14:10.944Z,1.25
2022-09-04T14:16:41.609Z,1.35
2022-09-04T14:19:20.219Z,1.20
2022-09-04T14:22:03.438Z,1.20
2022-09-04T14:24:38.544Z,1.23
2022-09-04T14:27:18.576Z,1.40
2022-09-04T14:29:58.471Z,1.40
2022-09-04T14:32:38.097Z,1.40
2022-09-04T14:35:15.059Z,1.25
2022-09-04T14:38:02.279Z,1.60
2022-09-04T14:40:34.491Z,1.30
2022-09-04T14:43:11.027Z,1.38
2022-09-04T14:46:02.556Z,1.30
2022-09-04T14:48:33.581Z,1.50
2022-09-04T14:51:15.199Z,1.40
2022-09-04T14:53:50.214Z,1.20
2022-09-04T14:56:35.607Z,1.30
2022-09-04T14:59:13.799Z,1.35
2022-09-04T15:02:01.000Z,1.30
2022-09-04T15:04:35.427Z,1.20
2022-09-04T15:07:18.185Z,1.35
2022-09-04T15:09:51.475Z,1.20
2022-09-04T15:12:25.709Z,1.30
2022-09-04T15:14:58.830Z,1.20
2022-09-04T15:17:30.399Z,1.42
2022-09-04T15:20:04.434Z,1.30
2022-09-04T15:22:41.154Z,1.30
2022-09-04T15:25:13.136Z,1.27
2022-09-04T15:27:51.973Z,1.30
2022-09-04T15:30:23.116Z,1.17
2022-09-04T15:33:03.586Z,1.30
2022-09-04T15:35:33.812Z,1.10
2022-09-04T15:38:08.251Z,1.40
2022-09-04T15:40:59.600Z,1.20
2022-09-04T15:43:42.614Z,1.20
2022-09-04T15:46:18.878Z,1.52
2022-09-04T15:48:55.030Z,1.30
2022-09-04T15:51:32.457Z,1.20
2022-09-04T15:54:29.109Z,1.48
2022-09-04T15:57:02.761Z,1.38
2022-09-04T15:59:45.417Z,1.42
2022-09-04T16:02:36.210Z,1.40
2022-09-04T16:05:10.936Z,1.23
2022-09-04T16:07:54.692Z,1.20
2022-09-04T16:10:26.808Z,1.33
2022-09-04T16:13:00.763Z,1.38
2022-09-04T16:15:33.805Z,1.30
2022-09-04T16:18:10.212Z,1.50
2022-09-04T16:20:51.262Z,1.58
2022-09-04T16:23:29.583Z,1.45
2022-09-04T16:25:59.938Z,1.40
2022-09-04T16:28:31.344Z,1.40
2022-09-04T16:31:03.433Z,1.25
2022-09-04T16:33:34.524Z,1.20
2022-09-04T16:36:08.012Z,1.50
2022-09-04T16:38:46.439Z,1.25
2022-09-04T16:41:25.451Z,1.63
2022-09-04T16:44:25.794Z,1.48
2022-09-04T16:47:04.540Z,1.50
2022-09-04T16:49:40.782Z,1.70
2022-09-04T16:52:31.806Z,1.38
2022-09-04T16:55:08.567Z,1.55
2022-09-04T16:57:43.315Z,1.35
2022-09-04T17:00:14.116Z,1.70
2022-09-04T17:02:50.820Z,1.60
2022-09-04T17:05:28.274Z,1.70
2022-09-04T17:08:02.582Z,1.70
2022-09-04T17:10:41.443Z,1.75
2022-09-04T17:13:17.373Z,1.45
2022-09-04T17:15:54.377Z,1.80
2022-09-04T17:18:26.093Z,1.73
2022-09-04T17:24:25.200Z,1.95
2022-09-04T17:29:03.674Z,1.80
2022-09-04T17:29:16.889Z,1.90
2022-09-04T17:29:47.081Z,1.90
2022-09-04T17:32:38.295Z,2.13
2022-09-04T17:40:42.889Z,1.55
2022-09-04T17:40:50.563Z,1.77
2022-09-04T17:41:40.706Z,1.60
2022-09-04T17:44:28.166Z,2.00
2022-09-04T17:47:10.038Z,1.80
2022-09-04T17:49:43.581Z,1.85
2022-09-04T17:52:26.839Z,1.77
2022-09-04T17:54:59.625Z,2.00
2022-09-04T17:57:39.038Z,2.15
2022-09-04T18:00:20.179Z,1.83
2022-09-04T18:02:56.942Z,1.70
2022-09-04T18:05:30.136Z,3.77
2022-09-04T18:08:10.566Z,2.70
2022-09-04T18:10:51.862Z,2.00
2022-09-04T18:13:37.851Z,2.10
2022-09-04T18:16:20.350Z,2.13
2022-09-04T18:18:52.812Z,2.03
2022-09-04T18:21:26.163Z,1.80
2022-09-04T18:24:03.139Z,4.13
2022-09-04T18:26:40.954Z,10.43
2022-09-04T18:32:25.268Z,3.83
2022-09-04T18:37:06.362Z,2.30
2022-09-04T18:37:23.206Z,1.97
2022-09-04T18:38:36.666Z,2.20
2022-09-04T18:49:00.382Z,2.10
2022-09-04T18:50:20.927Z,2.20
2022-09-04T18:50:38.246Z,2.20
2022-09-04T18:50:43.935Z,2.10
2022-09-04T18:53:01.850Z,2.00
2022-09-04T18:55:35.010Z,2.17
2022-09-04T18:58:37.965Z,2.10
2022-09-04T19:01:14.270Z,2.30
2022-09-04T19:03:46.943Z,2.30
2022-09-04T19:06:18.443Z,2.37
2022-09-04T19:08:50.933Z,2.37
2022-09-04T19:11:25.884Z,2.30
2022-09-04T19:14:00.731Z,2.60
2022-09-04T19:16:43.939Z,2.17
2022-09-04T19:19:20.529Z,2.10
2022-09-04T19:21:57.946Z,2.30
2022-09-04T19:24:36.109Z,2.07
2022-09-04T19:27:21.971Z,2.10
2022-09-04T19:30:19.458Z,2.23
2022-09-04T19:33:16.424Z,2.10
2022-09-04T19:35:49.829Z,2.13
2022-09-04T19:44:33.207Z,2.43
2022-09-04T19:46:15.504Z,2.20
2022-09-04T19:46:19.779Z,2.17
2022-09-04T19:47:28.515Z,2.17
2022-09-04T19:53:23.934Z,2.57
2022-09-04T19:53:31.293Z,2.20
2022-09-04T19:56:00.204Z,2.50
2022-09-04T19:58:35.568Z,2.17
2022-09-04T20:01:06.718Z,2.10
2022-09-04T20:03:46.392Z,2.47
2022-09-04T20:06:22.813Z,2.40
2022-09-04T20:08:59.995Z,2.23
2022-09-04T20:11:35.733Z,2.17
2022-09-04T20:14:14.313Z,2.20
2022-09-04T20:16:52.737Z,2.20
2022-09-04T20:19:28.411Z,2.27
2022-09-04T20:22:03.551Z,2.43
2022-09-04T20:24:39.781Z,2.30
2022-09-04T20:27:15.768Z,2.30
2022-09-04T20:29:50.431Z,2.30
2022-09-04T20:32:27.556Z,2.20
2022-09-04T20:35:13.462Z,2.20
2022-09-04T20:37:48.676Z,2.33
2022-09-04T20:40:27.363Z,2.20
2022-09-04T20:43:14.579Z,2.30
2022-09-04T20:50:06.812Z,2.63
2022-09-04T20:52:53.164Z,2.37
2022-09-04T20:52:58.241Z,2.43
2022-09-04T20:55:10.589Z,2.17
2022-09-04T21:02:54.654Z,2.17
2022-09-04T21:03:18.289Z,2.30
2022-09-04T21:04:05.849Z,2.60
2022-09-04T21:06:43.304Z,2.13
2022-09-04T21:09:33.115Z,2.40
2022-09-04T21:12:15.564Z,2.50
2022-09-04T21:14:47.234Z,2.37
2022-09-04T21:17:39.104Z,2.30
2022-09-04T21:21:00.618Z,2.00
2022-09-04T21:24:03.224Z,2.37
2022-09-04T21:26:50.847Z,2.20
2022-09-04T21:29:33.435Z,2.40
2022-09-04T21:32:31.089Z,2.50
2022-09-04T21:35:10.879Z,2.27
2022-09-04T21:37:48.566Z,2.43
2022-09-04T21:40:54.907Z,2.43
2022-09-04T21:43:38.307Z,2.43
2022-09-04T21:46:40.819Z,2.53
2022-09-04T21:49:29.425Z,2.40
2022-09-04T21:52:12.463Z,2.93
2022-09-04T21:58:04.971Z,2.33
2022-09-04T22:02:30.010Z,2.40
2022-09-04T22:02:35.358Z,2.40
2022-09-04T22:04:14.193Z,2.50
2022-09-04T22:10:25.070Z,2.60
2022-09-04T22:13:38.966Z,2.30
2022-09-04T22:13:42.732Z,2.60
2022-09-04T22:16:26.018Z,2.47
2022-09-04T22:19:16.279Z,2.30
2022-09-04T22:22:03.695Z,2.43
2022-09-04T22:25:06.609Z,2.37
2022-09-04T22:28:08.969Z,2.67
2022-09-04T22:30:53.385Z,2.73
2022-09-04T22:33:48.464Z,2.60
2022-09-04T22:37:01.227Z,2.40
2022-09-04T22:39:58.677Z,2.20
2022-09-04T22:42:38.107Z,2.60
2022-09-04T22:45:31.200Z,2.33
2022-09-04T22:48:26.712Z,2.50
2022-09-04T22:51:09.408Z,2.30
2022-09-04T22:53:52.181Z,2.30
2022-09-04T22:56:31.288Z,2.00
2022-09-04T22:59:26.248Z,2.30
2022-09-04T23:03:06.695Z,2.30
2022-09-04T23:05:46.559Z,2.20
2022-09-04T23:13:45.006Z,2.60
2022-09-04T23:13:53.398Z,2.30
2022-09-04T23:14:40.223Z,2.20
2022-09-04T23:17:29.298Z,2.60
2022-09-04T23:26:35.159Z,2.30
2022-09-04T23:26:42.855Z,2.43
2022-09-04T23:26:59.942Z,2.40
2022-09-04T23:30:10.354Z,2.50
2022-09-04T23:33:27.054Z,2.40
2022-09-04T23:36:10.560Z,2.30
2022-09-04T23:38:58.848Z,2.30
2022-09-04T23:41:53.162Z,2.40
2022-09-04T23:44:49.300Z,2.40
2022-09-04T23:47:48.391Z,2.53
2022-09-04T23:50:31.122Z,2.70
2022-09-04T23:53:08.996Z,2.30
2022-09-04T23:56:04.360Z,2.50
2022-09-04T23:59:21.357Z,2.63
